New River MCAS /H/ /Mccutcheon Fld/ Airport
KNCA : now visible

Airfield :











YOU CAN JOIN US ON...

 
LOGIN :

Register | Disclaimer

   EN    FR    IT 

 









Legend :    VFR   Marginal VFR   IFR   Intensive IFR   Very Intensive IFR
Visi :
Ceiling :
>= 8 km
>= 3000ft
5 to 8 km
1000 to 3000 ft
1500m to 5 km
500 to 1000 ft
800 to 1500m
200 to 500 ft
< 800m
< 200 ft
Symbols :   Thunderstorms  Fog  Heavy snow  Heavy precipitations  Wind > 20 kt







- Airport Elevation : 26 ft


KNCA - New River MCAS /H/ /Mccutcheon Fld/

CURRENT METAR :
  • 230856Z AUTO 25004KT 10SM CLR 12/11 A3010 RMK AO2 SLP196 T01220106 56006 $

EXPIRED METARs :
  • 230756Z AUTO 26003KT 10SM CLR 12/11 A3011 RMK AO2 SLP197 T01220111 $
  • 230656Z AUTO 27004KT 10SM CLR 12/11 A3011 RMK AO2 SLP199 T01220111 $

TAF TAF KNCA
Valid from the 23 at 03:00 until the 24 at 03:00 UTC


2303/2403 21006KT 9999 SCT060 QNH3011INS
BECMG 2317/2319 24008KT 9999 FEW050 QNH3003INS T10/2311Z T26/2320Z
KZDC FIR / North America



MET'MAP, your aeronautical weather chart ! - Copyright ORBIFLY December 2007 - Disclaimer

ORBIFLY MET'MAP TEAM :

Programming & Development : Alexandra Zaïnal
Concept & Development : Baudouin d'Aumeries
Co-Development & Prog : Marc-Olivier Méhu
Technical & hardware support : Manuel Goepfert

Contact : metmap@orbifly.com




SOURCES & CREDITS :

   NOAA       Earth
Advisory